Time;durP1;ratioP1;P1;durP2;ratioP2;P2;SDS_P1;SDS_P2;PMS_P1;PMS_P2;Temp;Humidity;BMP_temperature;BMP_pressure;BME280_temperature;BME280_humidity;BME280_pressure;Samples;Min_cycle;Max_cycle;Signal;HPM_P1;HPM_P2
2023/03/03 20:42:38;;;;;;;;;;;;;;;3.75;58.07;98540.00;6199091;23;19927;-61
2023/03/03 20:45:06;;;;;;;;;;;;;;;3.68;57.61;98540.25;6209860;23;20378;-60
2023/03/03 20:47:31;;;;;;;;;;;;;;;3.70;58.84;98547.09;6211742;23;19916;-61
2023/03/03 20:50:03;;;;;;;;;;;;;;;3.69;58.61;98544.56;6212992;23;19914;-60
2023/03/03 20:52:51;;;;;;;;;;;;;;;3.62;57.33;98543.09;6187098;23;19908;-61
2023/03/03 20:55:28;;;;;;;;;;;;;;;3.49;59.46;98553.88;6187736;23;19914;-60
2023/03/03 20:57:56;;;;;;;;;;;;;;;3.48;59.75;98548.75;6212696;23;19991;-59
2023/03/03 21:00:51;;;;;;;;;;;;;;;3.44;59.41;98552.31;6213638;23;19977;-59
2023/03/03 21:03:36;;;;;;;;;;;;;;;3.43;58.98;98554.06;6090675;23;19917;-60
2023/03/03 21:06:01;;;;;;;;;;;;;;;3.38;59.58;98556.00;6092585;23;19940;-57
2023/03/03 21:08:38;;;;;;;;;;;;;;;3.34;60.12;98546.63;6092502;23;19921;-60
2023/03/03 21:11:03;;;;;;;;;;;;;;;3.33;60.08;98557.88;6092757;23;19913;-60
2023/03/03 21:13:32;;;;;;;;;;;;;;;3.34;59.78;98562.19;6091971;23;20393;-60
2023/03/03 21:15:58;;;;;;;;;;;;;;;3.28;59.95;98560.63;6092375;23;19909;-60
2023/03/03 21:18:24;;;;;;;;;;;;;;;3.19;59.43;98560.09;6091619;23;20348;-60
2023/03/03 21:20:49;;;;;;;;;;;;;;;3.07;59.65;98561.34;6068309;23;20007;-60
2023/03/03 21:23:15;;;;;;;;;;;;;;;2.99;60.12;98560.75;6068117;23;19948;-60
2023/03/03 21:25:44;;;;;;;;;;;;;;;2.97;60.90;98560.81;6067410;23;19913;-59
2023/03/03 21:28:13;;;;;;;;;;;;;;;2.96;60.75;98558.25;6091906;23;19913;-59
2023/03/03 21:30:58;;;;;;;;;;;;;;;2.94;62.01;98560.91;6066329;23;20277;-59
2023/03/03 21:33:39;;;;;;;;;;;;;;;2.91;61.32;98561.00;6091493;23;20309;-60
2023/03/03 21:36:05;;;;;;;;;;;;;;;2.89;61.78;98557.63;6067182;23;19913;-60
2023/03/03 21:38:34;;;;;;;;;;;;;;;2.88;62.34;98558.50;6093828;23;20341;-60
2023/03/03 21:41:00;;;;;;;;;;;;;;;2.91;62.23;98550.63;6213305;23;19912;-59
2023/03/03 21:43:34;;;;;;;;;;;;;;;2.89;61.35;98557.63;6186612;23;19922;-60
2023/03/03 21:45:59;;;;;;;;;;;;;;;2.77;59.75;98552.81;6212803;23;20331;-60
2023/03/03 21:48:24;;;;;;;;;;;;;;;2.59;59.75;98554.25;6211928;23;19974;-60
2023/03/03 21:50:50;;;;;;;;;;;;;;;2.47;60.67;98552.00;6215018;23;19930;-60
2023/03/03 21:53:15;;;;;;;;;;;;;;;2.40;60.73;98556.53;6215132;23;19912;-60
2023/03/03 21:55:47;;;;;;;;;;;;;;;2.30;61.29;98552.50;6215740;23;19912;-61
2023/03/03 21:58:12;;;;;;;;;;;;;;;2.21;61.22;98557.97;6214159;23;19912;-60
2023/03/03 22:00:38;;;;;;;;;;;;;;;2.13;61.22;98548.69;6215916;23;19930;-61
2023/03/03 22:03:03;;;;;;;;;;;;;;;2.09;61.37;98554.84;6215103;23;19994;-60
2023/03/03 22:05:29;;;;;;;;;;;;;;;2.08;61.89;98547.97;6213409;23;19908;-61
2023/03/03 22:07:54;;;;;;;;;;;;;;;2.14;62.30;98552.97;6214310;23;19987;-60
2023/03/03 22:10:19;;;;;;;;;;;;;;;2.08;62.52;98552.31;6215230;23;19998;-61
2023/03/03 22:12:44;;;;;;;;;;;;;;;2.07;62.08;98556.63;6214548;23;19935;-62
2023/03/03 22:15:09;;;;;;;;;;;;;;;2.12;62.75;98553.91;6215846;23;19915;-61
2023/03/03 22:17:35;;;;;;;;;;;;;;;2.05;62.12;98558.41;6213712;23;19911;-61
2023/03/03 22:20:00;;;;;;;;;;;;;;;2.03;62.34;98559.34;6214651;23;19908;-60
2023/03/03 22:22:25;;;;;;;;;;;;;;;2.01;62.78;98559.38;6215398;23;19911;-61
2023/03/03 22:24:50;;;;;;;;;;;;;;;1.96;62.94;98560.41;6215825;23;19934;-61
2023/03/03 22:27:16;;;;;;;;;;;;;;;2.00;65.10;98562.03;6215791;23;19994;-61
2023/03/03 22:29:41;;;;;;;;;;;;;;;2.35;72.17;98559.25;6214435;23;20409;-61
2023/03/03 22:32:06;;;;;;;;;;;;;;;2.77;74.09;98553.66;6214726;23;20332;-61
2023/03/03 22:34:31;;;;;;;;;;;;;;;3.12;73.44;98561.19;6215773;23;20327;-61
2023/03/03 22:36:56;;;;;;;;;;;;;;;3.40;71.65;98555.94;6215854;23;20389;-61
2023/03/03 22:39:22;;;;;;;;;;;;;;;3.64;71.83;98546.47;6214862;23;19908;-61
2023/03/03 22:41:47;;;;;;;;;;;;;;;3.80;69.59;98558.00;6213214;23;19915;-61
2023/03/03 22:44:12;;;;;;;;;;;;;;;4.00;70.32;98554.69;6215691;23;19995;-61
2023/03/03 22:46:37;;;;;;;;;;;;;;;4.18;70.51;98547.97;6215848;23;19951;-61
2023/03/03 22:49:02;;;;;;;;;;;;;;;4.32;68.92;98557.84;6215352;23;19915;-61
2023/03/03 22:51:28;;;;;;;;;;;;;;;4.30;65.37;98547.50;6214112;23;19908;-62
2023/03/03 22:53:53;;;;;;;;;;;;;;;4.35;66.59;98555.13;6213980;23;19990;-61
2023/03/03 22:56:18;;;;;;;;;;;;;;;4.50;68.93;98559.72;6214052;23;19939;-61
